sensor_id;sensor_type;location;lat;lon;timestamp;P1;durP1;ratioP1;P2;durP2;ratioP2
54388;SDS011;40975;50.390;8.640;2023-07-22T00:01:30;6.25;;;3.97;;
54388;SDS011;40975;50.390;8.640;2023-07-22T00:03:57;6.90;;;4.00;;
54388;SDS011;40975;50.390;8.640;2023-07-22T00:06:22;6.53;;;4.18;;
54388;SDS011;40975;50.390;8.640;2023-07-22T00:08:49;7.90;;;4.35;;
54388;SDS011;40975;50.390;8.640;2023-07-22T00:11:14;7.57;;;4.55;;
54388;SDS011;40975;50.390;8.640;2023-07-22T00:13:40;8.43;;;4.35;;
54388;SDS011;40975;50.390;8.640;2023-07-22T00:16:05;11.10;;;4.65;;
54388;SDS011;40975;50.390;8.640;2023-07-22T00:18:32;6.68;;;4.65;;
54388;SDS011;40975;50.390;8.640;2023-07-22T00:20:58;8.50;;;4.78;;
54388;SDS011;40975;50.390;8.640;2023-07-22T00:23:24;5.97;;;4.20;;
54388;SDS011;40975;50.390;8.640;2023-07-22T00:25:50;7.13;;;4.47;;
54388;SDS011;40975;50.390;8.640;2023-07-22T00:28:15;6.95;;;4.38;;
54388;SDS011;40975;50.390;8.640;2023-07-22T00:30:41;8.82;;;4.40;;
54388;SDS011;40975;50.390;8.640;2023-07-22T00:33:07;6.50;;;4.32;;
54388;SDS011;40975;50.390;8.640;2023-07-22T00:35:33;6.10;;;3.65;;
54388;SDS011;40975;50.390;8.640;2023-07-22T00:37:59;6.05;;;3.53;;
54388;SDS011;40975;50.390;8.640;2023-07-22T00:40:25;7.22;;;4.30;;
54388;SDS011;40975;50.390;8.640;2023-07-22T00:42:50;6.68;;;4.07;;
54388;SDS011;40975;50.390;8.640;2023-07-22T00:45:16;7.90;;;4.35;;
54388;SDS011;40975;50.390;8.640;2023-07-22T00:47:41;11.13;;;4.97;;
54388;SDS011;40975;50.390;8.640;2023-07-22T00:50:07;6.22;;;4.60;;
54388;SDS011;40975;50.390;8.640;2023-07-22T00:52:37;7.65;;;4.10;;
54388;SDS011;40975;50.390;8.640;2023-07-22T00:55:04;7.25;;;4.47;;
54388;SDS011;40975;50.390;8.640;2023-07-22T00:57:30;5.82;;;3.88;;
54388;SDS011;40975;50.390;8.640;2023-07-22T00:59:56;9.40;;;4.57;;
54388;SDS011;40975;50.390;8.640;2023-07-22T01:02:22;7.45;;;4.25;;
54388;SDS011;40975;50.390;8.640;2023-07-22T01:04:48;7.10;;;4.57;;
54388;SDS011;40975;50.390;8.640;2023-07-22T01:07:15;7.70;;;4.93;;
54388;SDS011;40975;50.390;8.640;2023-07-22T01:09:40;7.32;;;4.05;;
54388;SDS011;40975;50.390;8.640;2023-07-22T01:12:08;7.03;;;3.97;;
54388;SDS011;40975;50.390;8.640;2023-07-22T01:14:35;6.70;;;4.45;;
54388;SDS011;40975;50.390;8.640;2023-07-22T01:17:02;7.25;;;4.38;;
54388;SDS011;40975;50.390;8.640;2023-07-22T01:19:29;7.75;;;4.97;;
54388;SDS011;40975;50.390;8.640;2023-07-22T01:21:55;8.30;;;5.10;;
54388;SDS011;40975;50.390;8.640;2023-07-22T01:24:22;7.05;;;4.05;;
54388;SDS011;40975;50.390;8.640;2023-07-22T01:26:48;9.18;;;4.28;;
54388;SDS011;40975;50.390;8.640;2023-07-22T01:29:13;8.38;;;4.28;;
54388;SDS011;40975;50.390;8.640;2023-07-22T01:31:39;9.43;;;4.82;;
54388;SDS011;40975;50.390;8.640;2023-07-22T01:34:04;6.47;;;4.05;;
54388;SDS011;40975;50.390;8.640;2023-07-22T01:36:30;6.45;;;4.10;;
54388;SDS011;40975;50.390;8.640;2023-07-22T01:38:56;8.20;;;4.55;;
54388;SDS011;40975;50.390;8.640;2023-07-22T01:41:21;7.57;;;4.38;;
54388;SDS011;40975;50.390;8.640;2023-07-22T01:43:46;7.25;;;3.85;;
54388;SDS011;40975;50.390;8.640;2023-07-22T01:46:12;6.28;;;4.05;;
54388;SDS011;40975;50.390;8.640;2023-07-22T01:48:37;8.93;;;4.45;;
54388;SDS011;40975;50.390;8.640;2023-07-22T01:51:02;7.60;;;4.70;;
54388;SDS011;40975;50.390;8.640;2023-07-22T01:53:28;6.43;;;4.88;;
54388;SDS011;40975;50.390;8.640;2023-07-22T01:55:54;7.30;;;4.50;;
54388;SDS011;40975;50.390;8.640;2023-07-22T01:58:19;5.65;;;4.18;;
54388;SDS011;40975;50.390;8.640;2023-07-22T02:00:49;5.95;;;3.88;;
54388;SDS011;40975;50.390;8.640;2023-07-22T02:03:19;7.10;;;4.18;;
54388;SDS011;40975;50.390;8.640;2023-07-22T02:05:45;6.07;;;3.75;;
54388;SDS011;40975;50.390;8.640;2023-07-22T02:08:10;6.47;;;4.05;;
54388;SDS011;40975;50.390;8.640;2023-07-22T02:10:36;6.88;;;4.05;;
54388;SDS011;40975;50.390;8.640;2023-07-22T02:13:01;7.95;;;4.45;;
54388;SDS011;40975;50.390;8.640;2023-07-22T02:15:29;8.25;;;4.18;;
54388;SDS011;40975;50.390;8.640;2023-07-22T02:17:54;9.57;;;4.10;;
54388;SDS011;40975;50.390;8.640;2023-07-22T02:20:20;7.13;;;4.22;;
54388;SDS011;40975;50.390;8.640;2023-07-22T02:22:45;5.72;;;4.10;;
54388;SDS011;40975;50.390;8.640;2023-07-22T02:25:11;7.50;;;4.38;;
54388;SDS011;40975;50.390;8.640;2023-07-22T02:27:36;7.22;;;4.28;;
54388;SDS011;40975;50.390;8.640;2023-07-22T02:30:02;8.73;;;4.97;;
54388;SDS011;40975;50.390;8.640;2023-07-22T02:32:29;8.63;;;4.95;;
54388;SDS011;40975;50.390;8.640;2023-07-22T02:34:54;5.80;;;3.97;;
54388;SDS011;40975;50.390;8.640;2023-07-22T02:37:20;8.88;;;4.53;;
54388;SDS011;40975;50.390;8.640;2023-07-22T02:39:45;7.65;;;4.97;;
54388;SDS011;40975;50.390;8.640;2023-07-22T02:42:11;10.10;;;4.70;;
54388;SDS011;40975;50.390;8.640;2023-07-22T02:44:37;11.20;;;4.75;;
54388;SDS011;40975;50.390;8.640;2023-07-22T02:47:02;9.60;;;4.80;;
54388;SDS011;40975;50.390;8.640;2023-07-22T02:49:27;6.70;;;4.57;;
54388;SDS011;40975;50.390;8.640;2023-07-22T02:51:53;6.97;;;3.60;;
54388;SDS011;40975;50.390;8.640;2023-07-22T02:54:19;6.80;;;4.72;;
54388;SDS011;40975;50.390;8.640;2023-07-22T02:56:44;7.68;;;4.25;;
54388;SDS011;40975;50.390;8.640;2023-07-22T02:59:09;8.50;;;4.50;;
54388;SDS011;40975;50.390;8.640;2023-07-22T03:01:35;10.77;;;4.20;;
54388;SDS011;40975;50.390;8.640;2023-07-22T03:04:00;5.57;;;3.80;;
54388;SDS011;40975;50.390;8.640;2023-07-22T03:06:25;7.22;;;4.40;;
54388;SDS011;40975;50.390;8.640;2023-07-22T03:08:51;6.47;;;3.80;;
54388;SDS011;40975;50.390;8.640;2023-07-22T03:11:16;5.75;;;4.45;;
54388;SDS011;40975;50.390;8.640;2023-07-22T03:13:42;9.88;;;5.07;;
54388;SDS011;40975;50.390;8.640;2023-07-22T03:16:07;8.65;;;4.25;;
54388;SDS011;40975;50.390;8.640;2023-07-22T03:18:33;8.63;;;5.15;;
54388;SDS011;40975;50.390;8.640;2023-07-22T03:20:59;8.63;;;4.25;;
54388;SDS011;40975;50.390;8.640;2023-07-22T03:23:24;6.63;;;4.35;;
54388;SDS011;40975;50.390;8.640;2023-07-22T03:25:50;6.72;;;3.92;;
54388;SDS011;40975;50.390;8.640;2023-07-22T03:28:16;8.27;;;4.53;;
54388;SDS011;40975;50.390;8.640;2023-07-22T03:30:41;7.05;;;4.03;;
54388;SDS011;40975;50.390;8.640;2023-07-22T03:33:07;9.98;;;4.72;;
54388;SDS011;40975;50.390;8.640;2023-07-22T03:35:33;8.23;;;4.38;;
54388;SDS011;40975;50.390;8.640;2023-07-22T03:37:58;6.55;;;4.38;;
54388;SDS011;40975;50.390;8.640;2023-07-22T03:40:24;7.50;;;4.45;;
54388;SDS011;40975;50.390;8.640;2023-07-22T03:42:54;7.93;;;4.63;;
54388;SDS011;40975;50.390;8.640;2023-07-22T03:45:21;7.72;;;3.97;;
54388;SDS011;40975;50.390;8.640;2023-07-22T03:47:51;12.23;;;4.72;;
54388;SDS011;40975;50.390;8.640;2023-07-22T03:50:19;9.77;;;5.13;;
54388;SDS011;40975;50.390;8.640;2023-07-22T03:52:44;9.43;;;4.97;;
54388;SDS011;40975;50.390;8.640;2023-07-22T03:55:10;9.02;;;4.90;;
54388;SDS011;40975;50.390;8.640;2023-07-22T03:57:35;8.48;;;4.30;;
54388;SDS011;40975;50.390;8.640;2023-07-22T04:00:01;7.90;;;4.47;;
54388;SDS011;40975;50.390;8.640;2023-07-22T04:02:37;6.13;;;4.22;;
54388;SDS011;40975;50.390;8.640;2023-07-22T04:05:03;7.38;;;5.00;;
54388;SDS011;40975;50.390;8.640;2023-07-22T04:07:28;6.55;;;4.75;;
54388;SDS011;40975;50.390;8.640;2023-07-22T04:09:54;7.95;;;4.32;;
54388;SDS011;40975;50.390;8.640;2023-07-22T04:12:19;6.32;;;4.38;;
54388;SDS011;40975;50.390;8.640;2023-07-22T04:14:45;10.60;;;4.47;;
54388;SDS011;40975;50.390;8.640;2023-07-22T04:17:11;7.18;;;4.28;;
54388;SDS011;40975;50.390;8.640;2023-07-22T04:19:36;8.48;;;4.60;;
54388;SDS011;40975;50.390;8.640;2023-07-22T04:22:02;7.97;;;4.72;;
54388;SDS011;40975;50.390;8.640;2023-07-22T04:24:32;6.90;;;4.40;;
54388;SDS011;40975;50.390;8.640;2023-07-22T04:26:58;7.38;;;4.32;;
54388;SDS011;40975;50.390;8.640;2023-07-22T04:29:25;7.95;;;4.13;;
54388;SDS011;40975;50.390;8.640;2023-07-22T04:31:50;9.63;;;4.70;;
54388;SDS011;40975;50.390;8.640;2023-07-22T04:34:15;8.20;;;4.72;;
54388;SDS011;40975;50.390;8.640;2023-07-22T04:36:41;6.72;;;4.63;;
54388;SDS011;40975;50.390;8.640;2023-07-22T04:39:06;6.03;;;4.57;;
54388;SDS011;40975;50.390;8.640;2023-07-22T04:41:32;7.47;;;3.75;;
54388;SDS011;40975;50.390;8.640;2023-07-22T04:43:58;9.45;;;3.90;;
54388;SDS011;40975;50.390;8.640;2023-07-22T04:46:23;6.65;;;4.07;;
54388;SDS011;40975;50.390;8.640;2023-07-22T04:48:50;9.25;;;4.43;;
54388;SDS011;40975;50.390;8.640;2023-07-22T04:51:16;9.48;;;4.68;;
54388;SDS011;40975;50.390;8.640;2023-07-22T04:53:41;7.78;;;4.47;;
54388;SDS011;40975;50.390;8.640;2023-07-22T04:56:07;6.10;;;4.03;;
54388;SDS011;40975;50.390;8.640;2023-07-22T04:58:32;5.65;;;3.63;;
54388;SDS011;40975;50.390;8.640;2023-07-22T05:00:57;7.28;;;4.75;;
54388;SDS011;40975;50.390;8.640;2023-07-22T05:03:23;6.72;;;4.25;;
54388;SDS011;40975;50.390;8.640;2023-07-22T05:05:50;8.77;;;4.10;;
54388;SDS011;40975;50.390;8.640;2023-07-22T05:08:15;6.13;;;3.85;;
54388;SDS011;40975;50.390;8.640;2023-07-22T05:10:41;7.40;;;3.95;;
54388;SDS011;40975;50.390;8.640;2023-07-22T05:13:06;8.13;;;4.15;;
54388;SDS011;40975;50.390;8.640;2023-07-22T05:15:31;6.63;;;4.18;;
54388;SDS011;40975;50.390;8.640;2023-07-22T05:17:56;9.70;;;4.35;;
54388;SDS011;40975;50.390;8.640;2023-07-22T05:20:22;7.38;;;4.53;;
54388;SDS011;40975;50.390;8.640;2023-07-22T05:22:47;6.97;;;4.15;;
54388;SDS011;40975;50.390;8.640;2023-07-22T05:25:13;5.72;;;3.95;;
54388;SDS011;40975;50.390;8.640;2023-07-22T05:27:39;8.38;;;4.28;;
54388;SDS011;40975;50.390;8.640;2023-07-22T05:30:05;9.73;;;4.53;;
54388;SDS011;40975;50.390;8.640;2023-07-22T05:32:31;9.80;;;5.03;;
54388;SDS011;40975;50.390;8.640;2023-07-22T05:34:57;7.68;;;3.90;;
54388;SDS011;40975;50.390;8.640;2023-07-22T05:37:23;10.20;;;4.13;;
54388;SDS011;40975;50.390;8.640;2023-07-22T05:39:48;8.30;;;4.22;;
54388;SDS011;40975;50.390;8.640;2023-07-22T05:42:14;6.03;;;3.90;;
54388;SDS011;40975;50.390;8.640;2023-07-22T05:44:39;8.25;;;3.65;;
54388;SDS011;40975;50.390;8.640;2023-07-22T05:47:05;6.05;;;3.53;;
54388;SDS011;40975;50.390;8.640;2023-07-22T05:49:30;5.95;;;3.17;;
54388;SDS011;40975;50.390;8.640;2023-07-22T05:51:55;4.68;;;3.17;;
54388;SDS011;40975;50.390;8.640;2023-07-22T05:54:21;3.95;;;3.08;;
54388;SDS011;40975;50.390;8.640;2023-07-22T05:56:46;3.97;;;3.22;;
54388;SDS011;40975;50.390;8.640;2023-07-22T05:59:11;5.93;;;3.47;;
54388;SDS011;40975;50.390;8.640;2023-07-22T06:01:37;4.88;;;3.10;;
54388;SDS011;40975;50.390;8.640;2023-07-22T06:04:03;4.43;;;3.22;;
54388;SDS011;40975;50.390;8.640;2023-07-22T06:06:29;8.10;;;3.10;;
54388;SDS011;40975;50.390;8.640;2023-07-22T06:08:54;6.93;;;3.63;;
54388;SDS011;40975;50.390;8.640;2023-07-22T06:11:19;4.50;;;3.05;;
54388;SDS011;40975;50.390;8.640;2023-07-22T06:13:45;4.13;;;3.13;;
54388;SDS011;40975;50.390;8.640;2023-07-22T06:16:10;3.92;;;3.38;;
54388;SDS011;40975;50.390;8.640;2023-07-22T06:18:35;3.55;;;2.97;;
54388;SDS011;40975;50.390;8.640;2023-07-22T06:21:01;4.00;;;2.67;;
54388;SDS011;40975;50.390;8.640;2023-07-22T06:23:26;3.45;;;3.00;;
54388;SDS011;40975;50.390;8.640;2023-07-22T06:25:52;4.63;;;3.03;;
54388;SDS011;40975;50.390;8.640;2023-07-22T06:28:17;4.22;;;3.33;;
54388;SDS011;40975;50.390;8.640;2023-07-22T06:30:42;4.35;;;3.22;;
54388;SDS011;40975;50.390;8.640;2023-07-22T06:33:08;5.45;;;4.03;;
54388;SDS011;40975;50.390;8.640;2023-07-22T06:35:33;5.43;;;3.80;;
54388;SDS011;40975;50.390;8.640;2023-07-22T06:37:58;5.72;;;4.38;;
54388;SDS011;40975;50.390;8.640;2023-07-22T06:40:24;4.43;;;3.30;;
54388;SDS011;40975;50.390;8.640;2023-07-22T06:42:50;5.78;;;3.45;;
54388;SDS011;40975;50.390;8.640;2023-07-22T06:45:15;3.83;;;3.28;;
54388;SDS011;40975;50.390;8.640;2023-07-22T06:47:41;5.28;;;3.60;;
54388;SDS011;40975;50.390;8.640;2023-07-22T06:50:06;3.53;;;3.03;;
54388;SDS011;40975;50.390;8.640;2023-07-22T06:52:32;3.75;;;3.03;;
54388;SDS011;40975;50.390;8.640;2023-07-22T06:54:58;5.07;;;3.13;;
54388;SDS011;40975;50.390;8.640;2023-07-22T06:57:23;3.63;;;2.95;;
54388;SDS011;40975;50.390;8.640;2023-07-22T06:59:51;8.18;;;4.60;;
54388;SDS011;40975;50.390;8.640;2023-07-22T07:02:16;4.35;;;3.38;;
54388;SDS011;40975;50.390;8.640;2023-07-22T07:04:41;5.80;;;3.75;;
54388;SDS011;40975;50.390;8.640;2023-07-22T07:07:07;4.65;;;3.40;;
54388;SDS011;40975;50.390;8.640;2023-07-22T07:09:32;3.80;;;3.40;;
54388;SDS011;40975;50.390;8.640;2023-07-22T07:11:57;4.55;;;3.08;;
54388;SDS011;40975;50.390;8.640;2023-07-22T07:14:23;5.07;;;3.00;;
54388;SDS011;40975;50.390;8.640;2023-07-22T07:16:49;4.22;;;3.20;;
54388;SDS011;40975;50.390;8.640;2023-07-22T07:19:15;4.25;;;3.38;;
54388;SDS011;40975;50.390;8.640;2023-07-22T07:21:40;4.88;;;2.83;;
54388;SDS011;40975;50.390;8.640;2023-07-22T07:24:05;3.30;;;2.90;;
54388;SDS011;40975;50.390;8.640;2023-07-22T07:26:31;4.40;;;3.00;;
54388;SDS011;40975;50.390;8.640;2023-07-22T07:28:56;3.80;;;2.83;;
54388;SDS011;40975;50.390;8.640;2023-07-22T07:31:21;4.10;;;2.60;;
54388;SDS011;40975;50.390;8.640;2023-07-22T07:33:47;2.92;;;2.63;;
54388;SDS011;40975;50.390;8.640;2023-07-22T07:36:12;3.90;;;2.67;;
54388;SDS011;40975;50.390;8.640;2023-07-22T07:38:37;3.30;;;2.80;;
54388;SDS011;40975;50.390;8.640;2023-07-22T07:41:03;4.18;;;2.83;;
54388;SDS011;40975;50.390;8.640;2023-07-22T07:43:33;4.85;;;3.13;;
54388;SDS011;40975;50.390;8.640;2023-07-22T07:46:18;5.10;;;2.97;;
54388;SDS011;40975;50.390;8.640;2023-07-22T07:48:47;4.57;;;2.72;;
54388;SDS011;40975;50.390;8.640;2023-07-22T07:51:15;3.83;;;2.90;;
54388;SDS011;40975;50.390;8.640;2023-07-22T07:53:42;2.85;;;2.55;;
54388;SDS011;40975;50.390;8.640;2023-07-22T07:56:09;2.88;;;2.58;;
54388;SDS011;40975;50.390;8.640;2023-07-22T07:58:35;2.75;;;2.55;;
54388;SDS011;40975;50.390;8.640;2023-07-22T08:01:01;5.70;;;2.75;;
54388;SDS011;40975;50.390;8.640;2023-07-22T08:03:26;5.28;;;4.05;;
54388;SDS011;40975;50.390;8.640;2023-07-22T08:05:51;6.07;;;4.13;;
54388;SDS011;40975;50.390;8.640;2023-07-22T08:08:17;4.55;;;3.22;;
54388;SDS011;40975;50.390;8.640;2023-07-22T08:10:42;4.15;;;2.95;;
54388;SDS011;40975;50.390;8.640;2023-07-22T08:13:09;4.05;;;2.97;;
54388;SDS011;40975;50.390;8.640;2023-07-22T08:15:34;3.53;;;3.03;;
54388;SDS011;40975;50.390;8.640;2023-07-22T08:18:00;3.08;;;2.85;;
54388;SDS011;40975;50.390;8.640;2023-07-22T08:20:25;3.20;;;2.75;;
54388;SDS011;40975;50.390;8.640;2023-07-22T08:22:50;3.25;;;2.85;;
54388;SDS011;40975;50.390;8.640;2023-07-22T08:25:16;3.08;;;2.60;;
54388;SDS011;40975;50.390;8.640;2023-07-22T08:27:41;4.25;;;3.33;;
54388;SDS011;40975;50.390;8.640;2023-07-22T08:30:06;4.13;;;3.00;;
54388;SDS011;40975;50.390;8.640;2023-07-22T08:32:32;4.05;;;3.22;;
54388;SDS011;40975;50.390;8.640;2023-07-22T08:34:57;4.15;;;2.90;;
54388;SDS011;40975;50.390;8.640;2023-07-22T08:37:23;3.45;;;2.90;;
54388;SDS011;40975;50.390;8.640;2023-07-22T08:39:48;4.13;;;2.88;;
54388;SDS011;40975;50.390;8.640;2023-07-22T08:42:13;4.35;;;3.22;;
54388;SDS011;40975;50.390;8.640;2023-07-22T08:44:43;4.18;;;2.90;;
54388;SDS011;40975;50.390;8.640;2023-07-22T08:47:10;3.95;;;2.83;;
54388;SDS011;40975;50.390;8.640;2023-07-22T08:49:44;3.13;;;2.75;;
54388;SDS011;40975;50.390;8.640;2023-07-22T08:52:14;2.88;;;2.53;;
54388;SDS011;40975;50.390;8.640;2023-07-22T08:54:40;5.28;;;2.70;;
54388;SDS011;40975;50.390;8.640;2023-07-22T08:57:07;4.65;;;3.10;;
54388;SDS011;40975;50.390;8.640;2023-07-22T08:59:34;4.30;;;2.80;;
54388;SDS011;40975;50.390;8.640;2023-07-22T09:02:00;5.53;;;2.42;;
54388;SDS011;40975;50.390;8.640;2023-07-22T09:04:26;3.70;;;2.58;;
54388;SDS011;40975;50.390;8.640;2023-07-22T09:06:51;3.70;;;2.30;;
54388;SDS011;40975;50.390;8.640;2023-07-22T09:09:18;4.15;;;2.58;;
54388;SDS011;40975;50.390;8.640;2023-07-22T09:11:44;4.70;;;2.63;;
54388;SDS011;40975;50.390;8.640;2023-07-22T09:14:10;3.95;;;2.50;;
54388;SDS011;40975;50.390;8.640;2023-07-22T09:16:36;3.65;;;2.33;;
54388;SDS011;40975;50.390;8.640;2023-07-22T09:19:03;3.83;;;2.67;;
54388;SDS011;40975;50.390;8.640;2023-07-22T09:21:29;4.25;;;2.60;;
54388;SDS011;40975;50.390;8.640;2023-07-22T09:23:54;3.33;;;2.75;;
54388;SDS011;40975;50.390;8.640;2023-07-22T09:26:20;4.70;;;2.33;;
54388;SDS011;40975;50.390;8.640;2023-07-22T09:31:20;3.30;;;2.75;;
54388;SDS011;40975;50.390;8.640;2023-07-22T09:33:46;3.45;;;2.63;;
54388;SDS011;40975;50.390;8.640;2023-07-22T09:36:11;2.65;;;2.13;;
54388;SDS011;40975;50.390;8.640;2023-07-22T09:38:37;6.10;;;2.20;;
54388;SDS011;40975;50.390;8.640;2023-07-22T09:41:03;3.40;;;2.10;;
54388;SDS011;40975;50.390;8.640;2023-07-22T09:43:29;3.10;;;2.03;;
54388;SDS011;40975;50.390;8.640;2023-07-22T09:45:55;4.72;;;2.03;;
54388;SDS011;40975;50.390;8.640;2023-07-22T09:48:21;2.72;;;2.25;;
54388;SDS011;40975;50.390;8.640;2023-07-22T09:50:55;3.33;;;2.58;;
54388;SDS011;40975;50.390;8.640;2023-07-22T09:53:21;4.53;;;2.40;;
54388;SDS011;40975;50.390;8.640;2023-07-22T09:55:46;4.40;;;2.72;;
54388;SDS011;40975;50.390;8.640;2023-07-22T09:58:13;4.28;;;2.10;;
54388;SDS011;40975;50.390;8.640;2023-07-22T10:00:39;2.03;;;1.83;;
54388;SDS011;40975;50.390;8.640;2023-07-22T10:03:09;3.38;;;2.20;;
54388;SDS011;40975;50.390;8.640;2023-07-22T10:05:37;6.72;;;2.42;;
54388;SDS011;40975;50.390;8.640;2023-07-22T10:08:04;3.55;;;2.53;;
54388;SDS011;40975;50.390;8.640;2023-07-22T10:10:32;3.00;;;2.47;;
54388;SDS011;40975;50.390;8.640;2023-07-22T10:12:58;3.50;;;2.40;;
54388;SDS011;40975;50.390;8.640;2023-07-22T10:15:33;5.60;;;2.65;;
54388;SDS011;40975;50.390;8.640;2023-07-22T10:18:00;7.45;;;3.97;;
54388;SDS011;40975;50.390;8.640;2023-07-22T10:20:26;3.60;;;2.60;;
54388;SDS011;40975;50.390;8.640;2023-07-22T10:22:53;4.07;;;2.55;;
54388;SDS011;40975;50.390;8.640;2023-07-22T10:25:20;4.40;;;2.25;;
54388;SDS011;40975;50.390;8.640;2023-07-22T10:27:47;5.70;;;2.47;;
54388;SDS011;40975;50.390;8.640;2023-07-22T10:30:14;4.10;;;2.53;;
54388;SDS011;40975;50.390;8.640;2023-07-22T10:32:41;3.53;;;2.22;;
54388;SDS011;40975;50.390;8.640;2023-07-22T10:37:55;3.25;;;2.08;;
54388;SDS011;40975;50.390;8.640;2023-07-22T10:40:31;3.20;;;2.50;;
54388;SDS011;40975;50.390;8.640;2023-07-22T10:43:01;2.60;;;2.13;;
54388;SDS011;40975;50.390;8.640;2023-07-22T10:45:30;4.25;;;2.20;;
54388;SDS011;40975;50.390;8.640;2023-07-22T10:48:05;3.58;;;2.30;;
54388;SDS011;40975;50.390;8.640;2023-07-22T10:50:45;3.28;;;2.10;;
54388;SDS011;40975;50.390;8.640;2023-07-22T10:56:02;4.88;;;2.42;;
54388;SDS011;40975;50.390;8.640;2023-07-22T10:58:32;2.65;;;2.00;;
54388;SDS011;40975;50.390;8.640;2023-07-22T11:06:30;2.83;;;1.92;;
54388;SDS011;40975;50.390;8.640;2023-07-22T11:08:55;4.78;;;1.90;;
54388;SDS011;40975;50.390;8.640;2023-07-22T11:11:21;3.55;;;2.10;;
54388;SDS011;40975;50.390;8.640;2023-07-22T11:14:12;2.38;;;2.10;;
54388;SDS011;40975;50.390;8.640;2023-07-22T11:16:47;3.88;;;2.20;;
54388;SDS011;40975;50.390;8.640;2023-07-22T11:19:14;4.55;;;2.50;;
54388;SDS011;40975;50.390;8.640;2023-07-22T11:21:40;3.53;;;1.88;;
54388;SDS011;40975;50.390;8.640;2023-07-22T11:24:07;2.60;;;2.33;;
54388;SDS011;40975;50.390;8.640;2023-07-22T11:26:32;3.15;;;2.10;;
54388;SDS011;40975;50.390;8.640;2023-07-22T11:29:02;6.45;;;3.80;;
54388;SDS011;40975;50.390;8.640;2023-07-22T11:31:31;5.72;;;3.30;;
54388;SDS011;40975;50.390;8.640;2023-07-22T11:33:57;2.78;;;1.98;;
54388;SDS011;40975;50.390;8.640;2023-07-22T11:36:23;4.55;;;2.42;;
54388;SDS011;40975;50.390;8.640;2023-07-22T11:38:48;2.33;;;1.88;;
54388;SDS011;40975;50.390;8.640;2023-07-22T11:41:13;3.30;;;2.33;;
54388;SDS011;40975;50.390;8.640;2023-07-22T11:43:39;3.47;;;2.15;;
54388;SDS011;40975;50.390;8.640;2023-07-22T11:46:05;3.22;;;2.00;;
54388;SDS011;40975;50.390;8.640;2023-07-22T11:48:31;4.18;;;1.90;;
54388;SDS011;40975;50.390;8.640;2023-07-22T11:50:59;2.85;;;2.08;;
54388;SDS011;40975;50.390;8.640;2023-07-22T11:53:28;2.75;;;2.17;;
54388;SDS011;40975;50.390;8.640;2023-07-22T11:55:55;2.78;;;2.10;;
54388;SDS011;40975;50.390;8.640;2023-07-22T11:58:24;4.03;;;2.30;;
54388;SDS011;40975;50.390;8.640;2023-07-22T12:01:01;2.78;;;2.13;;
54388;SDS011;40975;50.390;8.640;2023-07-22T12:06:00;5.47;;;2.00;;
54388;SDS011;40975;50.390;8.640;2023-07-22T12:08:28;4.22;;;2.75;;
54388;SDS011;40975;50.390;8.640;2023-07-22T12:10:57;4.88;;;2.20;;
54388;SDS011;40975;50.390;8.640;2023-07-22T12:13:23;5.50;;;2.13;;
54388;SDS011;40975;50.390;8.640;2023-07-22T12:16:01;3.60;;;1.95;;
54388;SDS011;40975;50.390;8.640;2023-07-22T12:18:43;3.90;;;2.50;;
54388;SDS011;40975;50.390;8.640;2023-07-22T12:21:09;4.57;;;2.42;;
54388;SDS011;40975;50.390;8.640;2023-07-22T12:23:35;6.90;;;2.90;;
54388;SDS011;40975;50.390;8.640;2023-07-22T12:26:01;3.20;;;2.20;;
54388;SDS011;40975;50.390;8.640;2023-07-22T12:28:27;4.45;;;2.80;;
54388;SDS011;40975;50.390;8.640;2023-07-22T12:30:52;2.80;;;2.35;;
54388;SDS011;40975;50.390;8.640;2023-07-22T12:33:17;3.20;;;2.28;;
54388;SDS011;40975;50.390;8.640;2023-07-22T12:35:43;3.22;;;2.22;;
54388;SDS011;40975;50.390;8.640;2023-07-22T12:38:08;4.13;;;2.42;;
54388;SDS011;40975;50.390;8.640;2023-07-22T12:40:33;4.80;;;2.22;;
54388;SDS011;40975;50.390;8.640;2023-07-22T12:42:59;3.60;;;2.40;;
54388;SDS011;40975;50.390;8.640;2023-07-22T12:45:24;3.13;;;2.65;;
54388;SDS011;40975;50.390;8.640;2023-07-22T12:47:49;3.05;;;2.42;;
54388;SDS011;40975;50.390;8.640;2023-07-22T12:50:15;2.30;;;1.90;;
54388;SDS011;40975;50.390;8.640;2023-07-22T12:52:40;2.83;;;2.08;;
54388;SDS011;40975;50.390;8.640;2023-07-22T12:55:05;2.67;;;2.00;;
54388;SDS011;40975;50.390;8.640;2023-07-22T12:57:31;2.50;;;1.80;;
54388;SDS011;40975;50.390;8.640;2023-07-22T12:59:56;2.67;;;1.95;;
54388;SDS011;40975;50.390;8.640;2023-07-22T13:02:22;3.75;;;2.47;;
54388;SDS011;40975;50.390;8.640;2023-07-22T13:04:47;3.08;;;2.35;;
54388;SDS011;40975;50.390;8.640;2023-07-22T13:07:13;3.70;;;2.65;;
54388;SDS011;40975;50.390;8.640;2023-07-22T13:09:41;3.10;;;2.35;;
54388;SDS011;40975;50.390;8.640;2023-07-22T13:12:11;3.75;;;2.60;;
54388;SDS011;40975;50.390;8.640;2023-07-22T13:14:36;3.53;;;2.50;;
54388;SDS011;40975;50.390;8.640;2023-07-22T13:17:02;2.75;;;2.30;;
54388;SDS011;40975;50.390;8.640;2023-07-22T13:19:27;8.80;;;5.47;;
54388;SDS011;40975;50.390;8.640;2023-07-22T13:21:52;12.52;;;8.60;;
54388;SDS011;40975;50.390;8.640;2023-07-22T13:24:18;3.95;;;2.20;;
54388;SDS011;40975;50.390;8.640;2023-07-22T13:26:43;2.50;;;2.17;;
54388;SDS011;40975;50.390;8.640;2023-07-22T13:29:08;4.00;;;2.20;;
54388;SDS011;40975;50.390;8.640;2023-07-22T13:31:34;4.43;;;2.35;;
54388;SDS011;40975;50.390;8.640;2023-07-22T13:33:59;3.17;;;2.25;;
54388;SDS011;40975;50.390;8.640;2023-07-22T13:36:24;3.65;;;2.38;;
54388;SDS011;40975;50.390;8.640;2023-07-22T13:38:50;3.22;;;2.10;;
54388;SDS011;40975;50.390;8.640;2023-07-22T13:41:15;3.53;;;2.40;;
54388;SDS011;40975;50.390;8.640;2023-07-22T13:43:40;5.18;;;2.33;;
54388;SDS011;40975;50.390;8.640;2023-07-22T13:46:05;3.35;;;2.40;;
54388;SDS011;40975;50.390;8.640;2023-07-22T13:48:31;3.63;;;2.38;;
54388;SDS011;40975;50.390;8.640;2023-07-22T13:50:56;3.35;;;1.88;;
54388;SDS011;40975;50.390;8.640;2023-07-22T13:53:21;3.95;;;2.47;;
54388;SDS011;40975;50.390;8.640;2023-07-22T13:55:47;4.07;;;2.47;;
54388;SDS011;40975;50.390;8.640;2023-07-22T13:58:12;4.47;;;2.45;;
54388;SDS011;40975;50.390;8.640;2023-07-22T14:00:37;2.60;;;2.05;;
54388;SDS011;40975;50.390;8.640;2023-07-22T14:03:03;2.92;;;2.20;;
54388;SDS011;40975;50.390;8.640;2023-07-22T14:05:28;4.00;;;2.30;;
54388;SDS011;40975;50.390;8.640;2023-07-22T14:07:54;3.72;;;2.25;;
54388;SDS011;40975;50.390;8.640;2023-07-22T14:10:19;3.10;;;2.50;;
54388;SDS011;40975;50.390;8.640;2023-07-22T14:12:44;3.60;;;2.45;;
54388;SDS011;40975;50.390;8.640;2023-07-22T14:15:10;3.85;;;2.35;;
54388;SDS011;40975;50.390;8.640;2023-07-22T14:17:35;3.05;;;2.45;;
54388;SDS011;40975;50.390;8.640;2023-07-22T14:20:03;4.53;;;2.45;;
54388;SDS011;40975;50.390;8.640;2023-07-22T14:22:29;7.43;;;3.42;;
54388;SDS011;40975;50.390;8.640;2023-07-22T14:24:55;3.55;;;2.55;;
54388;SDS011;40975;50.390;8.640;2023-07-22T14:27:20;3.45;;;2.38;;
54388;SDS011;40975;50.390;8.640;2023-07-22T14:29:45;4.55;;;2.10;;
54388;SDS011;40975;50.390;8.640;2023-07-22T14:32:11;5.05;;;2.40;;
54388;SDS011;40975;50.390;8.640;2023-07-22T14:34:36;3.58;;;2.30;;
54388;SDS011;40975;50.390;8.640;2023-07-22T14:37:01;3.20;;;2.20;;
54388;SDS011;40975;50.390;8.640;2023-07-22T14:39:29;6.13;;;2.53;;
54388;SDS011;40975;50.390;8.640;2023-07-22T14:41:54;3.85;;;1.90;;
54388;SDS011;40975;50.390;8.640;2023-07-22T14:44:19;3.75;;;2.50;;
54388;SDS011;40975;50.390;8.640;2023-07-22T14:46:45;5.65;;;2.60;;
54388;SDS011;40975;50.390;8.640;2023-07-22T14:49:10;2.67;;;1.95;;
54388;SDS011;40975;50.390;8.640;2023-07-22T14:51:35;3.10;;;2.20;;
54388;SDS011;40975;50.390;8.640;2023-07-22T14:54:01;3.80;;;2.42;;
54388;SDS011;40975;50.390;8.640;2023-07-22T14:56:27;3.08;;;2.10;;
54388;SDS011;40975;50.390;8.640;2023-07-22T14:58:52;4.75;;;2.47;;